Latest Weather Observations for Canberra

IDN60801

Issued at 4:32 pm EDT Friday 12 February 2016 (issued every 30 minutes, with the page automatically refreshed every 10 minutes)

About weather observations | Map of weather stations | Latest weather observations for NSW | Other Formats
Station Details ID: 070351 Name: CANBERRA AIRPORT Lat: -35.31 Lon: 149.20 Height: 577.05 m
Data from the previous 72 hours. | See also: Recent months at Canberra
Date/Time
EDT
Temp
°C
App
Temp
°C
Dew
Point
Rel
Hum
%
Delta-T
°C
Wind Press
QNH
hPa
Press
MSL
hPa
Rain
since 9 am
mm
Dir
 
Spd
km/h
Gust
km/h
Spd
kts
Gust
kts
12/04:00pm 27.3 26.7 15.7 49 7.3 W 13 17 7 9 1014.8 1012.3 0.0
12/03:30pm 27.7 27.2 15.0 45 7.9 WNW 11 13 6 7 1015.2 1012.7 0.0
12/03:00pm 27.5 27.2 14.5 45 8.0 NW 9 13 5 7 1015.5 1013.0 0.0
12/02:30pm 27.1 26.6 13.8 44 8.1 N 9 15 5 8 1015.9 1013.5 0.0
12/02:00pm 28.0 27.4 15.6 46 7.8 N 13 19 7 10 1015.9 1013.5 0.0
12/01:30pm 26.8 26.5 15.5 50 7.0 NNW 11 17 6 9 1016.5 1014.0 0.0
12/01:00pm 26.1 26.1 15.2 51 6.7 NNE 9 19 5 10 1016.9 1014.4 0.0
12/12:30pm 25.6 25.7 15.6 54 6.2 NNW 9 13 5 7 1017.3 1014.8 0.0
12/12:00pm 24.8 25.4 15.4 56 5.8 W 6 9 3 5 1017.7 1015.3 0.0
12/11:30am 23.7 23.4 14.4 56 5.6 ENE 9 13 5 7 1018.2 1015.7 0.0
12/11:00am 22.9 22.7 14.7 60 5.0 ENE 9 13 5 7 1018.5 1016.0 0.0
12/10:30am 22.4 23.1 16.0 67 4.0 ENE 7 13 4 7 1018.9 1016.4 0.0
12/10:00am 20.8 20.9 15.6 72 3.2 SSE 9 13 5 7 1019.1 1016.7 0.0
12/09:30am 20.4 21.0 15.4 73 3.0 ESE 6 13 3 7 1019.0 1016.6 0.0
12/09:00am 20.7 20.5 15.7 73 3.1 ESE 11 15 6 8 1019.0 1016.6 2.4
12/08:30am 19.9 19.3 15.7 77 2.6 ESE 13 15 7 8 1018.9 1016.4 2.4
12/08:00am 18.4 18.8 16.4 88 1.2 E 9 11 5 6 1018.7 1016.2 2.4
12/07:30am 18.0 18.4 16.2 89 1.1 ENE 9 11 5 6 1018.6 1016.1 2.4
12/07:00am 17.5 17.6 16.4 93 0.7 ENE 11 15 6 8 1018.3 1015.8 2.4
12/06:30am 15.4 15.4 15.2 99 0.1 N 9 11 5 6 1018.1 1015.6 2.4
12/06:17am 14.8 15.0 14.3 97 0.3 NNE 6 7 3 4 1018.0 1015.5 2.4
12/06:00am 14.7 16.1 14.4 98 0.2 CALM 0 0 0 0 1017.7 1015.3 2.4
12/05:30am 14.6 14.2 14.1 97 0.3 ESE 9 13 5 7 1017.4 1015.0 2.4
12/05:00am 14.8 14.8 14.2 96 0.3 E 7 11 4 6 1017.2 1014.7 2.4
12/04:31am 15.5 16.2 14.4 93 0.6 ESE 4 7 2 4 1017.2 1014.7 2.4
12/04:30am 15.7 16.5 14.7 94 0.6 ESE 4 7 2 4 1017.1 1014.6 2.4
12/04:00am 15.9 16.2 15.1 95 0.5 SE 7 11 4 6 1017.0 1014.5 2.4
12/03:30am 16.2 16.3 15.4 95 0.5 S 9 9 5 5 1017.1 1014.6 2.4
12/03:21am 16.2 16.6 15.2 94 0.6 SE 7 9 4 5 1017.0 1014.5 2.4
12/03:00am 16.8 17.3 15.5 92 0.8 SE 7 9 4 5 1017.2 1014.7 2.4
12/02:30am 17.7 19.3 16.0 90 1.0 S 2 7 1 4 1017.4 1015.0 2.4
12/02:00am 17.1 18.7 16.0 93 0.7 NNE 2 6 1 3 1017.5 1015.1 2.4
12/01:59am 17.0 18.6 15.9 93 0.7 NNE 2 7 1 4 1017.5 1015.1 2.4
12/01:54am 16.8 17.5 15.5 92 0.8 NE 6 7 3 4 1017.4 1015.0 2.4
12/01:30am 17.3 17.7 16.3 94 0.6 SE 9 13 5 7 1017.7 1015.3 2.4
12/01:25am 16.9 17.2 15.9 94 0.6 SSE 9 11 5 6 1017.8 1015.4 2.4
12/01:00am 17.1 17.8 16.0 93 0.7 SE 7 9 4 5 1018.0 1015.5 2.4
12/12:30am 17.3 17.5 15.8 91 0.9 SSE 9 11 5 6 1018.1 1015.6 2.4
12/12:00am 18.2 18.4 15.8 86 1.5 SE 9 17 5 9 1017.8 1015.4 2.4
 
Date/Time
EDT
Temp
°C
App
Temp
°C
Dew
Point
Rel
Hum
%
Delta-T
°C
Wind Press
QNH
hPa
Press
MSL
hPa
Rain
since 9 am
mm
Dir
 
Spd
km/h
Gust
km/h
Spd
kts
Gust
kts
11/11:30pm 18.6 18.9 16.0 85 1.6 SSE 9 13 5 7 1018.2 1015.7 2.4
11/11:00pm 19.1 19.1 16.3 84 1.7 E 11 13 6 7 1018.6 1016.1 2.4
11/10:33pm 19.3 18.9 16.3 83 1.8 E 13 15 7 8 1018.7 1016.2 2.4
11/10:30pm 19.5 19.6 16.5 83 1.9 E 11 15 6 8 1018.7 1016.2 2.4
11/10:00pm 20.2 20.0 16.6 80 2.2 SE 13 17 7 9 1018.4 1015.9 2.4
11/09:38pm 19.9 20.5 16.9 83 1.9 S 9 15 5 8 1017.7 1015.3 2.4
11/09:30pm 19.6 20.5 16.6 83 1.9 SE 7 11 4 6 1017.6 1015.2 2.4
11/09:00pm 20.2 20.4 16.8 81 2.1 NNE 11 13 6 7 1016.9 1014.4 2.4
11/08:30pm 20.3 20.8 16.5 79 2.4 E 9 11 5 6 1017.1 1014.6 2.4
11/08:00pm 20.8 19.5 16.8 78 2.5 ESE 19 30 10 16 1015.9 1013.5 2.4
11/07:30pm 21.4 20.2 17.4 78 2.5 SE 20 30 11 16 1016.0 - 2.4
11/07:00pm 21.6 21.1 17.8 79 2.4 SE 17 32 9 17 1016.0 1013.6 2.4
11/06:30pm 21.4 22.7 18.4 83 1.9 SSW 9 13 5 7 1015.9 - 2.4
11/06:00pm 20.1 19.6 17.9 87 1.4 ENE 17 20 9 11 1014.3 1011.7 2.2
11/05:30pm 19.7 17.6 17.1 85 1.6 ESE 24 44 13 24 1014.1 - 1.6
11/05:18pm 19.9 16.3 17.1 84 1.7 SE 32 44 17 24 1013.7 - 0.4
11/05:00pm 23.3 21.2 15.1 60 5.0 SE 20 48 11 26 1014.1 1011.6 0.0
11/04:42pm 28.1 25.6 16.1 48 7.6 ENE 24 32 13 17 1013.4 - 0.0
11/04:30pm 28.1 25.2 16.1 48 7.6 ENE 26 33 14 18 1013.5 - 0.0
11/04:00pm 28.2 26.0 14.4 42 8.5 ENE 19 33 10 18 1013.6 1011.1 0.0
11/03:30pm 28.9 27.4 14.3 40 9.0 ENE 15 24 8 13 1013.6 - 0.0
11/03:00pm 28.1 25.4 14.7 44 8.3 E 22 33 12 18 1014.4 1011.9 0.0
11/02:30pm 27.6 25.9 14.6 45 8.0 NE 17 24 9 13 1014.9 1012.4 0.0
11/02:00pm 27.3 25.4 15.3 48 7.5 ENE 19 28 10 15 1015.4 1012.9 0.0
11/01:30pm 27.6 26.7 15.9 49 7.4 NE 15 28 8 15 1015.7 1013.2 0.0
11/01:00pm 26.7 25.5 15.1 49 7.2 ENE 15 28 8 15 1015.9 1013.5 0.0
11/12:30pm 25.3 24.1 15.0 53 6.3 ENE 15 26 8 14 1016.4 1013.9 0.0
11/12:00pm 25.3 24.6 15.3 54 6.2 E 13 20 7 11 1016.5 1014.0 0.0
11/11:30am 24.0 23.6 15.2 58 5.4 ENE 11 17 6 9 1016.8 1014.3 0.0
11/11:00am 24.2 23.5 15.4 58 5.4 ESE 13 19 7 10 1017.0 1014.5 0.0
11/10:30am 23.0 21.9 15.3 62 4.7 ENE 15 19 8 10 1017.1 1014.6 0.0
11/10:00am 22.4 22.1 15.5 65 4.2 ESE 11 15 6 8 1017.1 1014.6 0.0
11/09:30am 21.7 21.8 15.5 68 3.8 ESE 9 17 5 9 1017.2 1014.7 0.0
11/09:00am 21.0 21.0 15.1 69 3.6 ESE 9 13 5 7 1017.2 1014.7 0.0
11/08:30am 20.4 20.5 15.4 73 3.0 SE 9 13 5 7 1017.2 1014.7 0.0
11/08:00am 18.9 19.0 15.4 80 2.1 SE 9 11 5 6 1016.9 1014.4 0.0
11/07:30am 17.6 17.9 15.0 85 1.6 SE 7 9 4 5 1016.8 1014.3 0.0
11/07:00am 15.9 15.7 14.8 93 0.6 ESE 9 9 5 5 1016.5 1014.0 0.0
11/06:30am 15.2 14.9 14.4 95 0.5 ESE 9 11 5 6 1016.0 1013.6 0.0
11/06:00am 15.5 16.5 14.4 93 0.6 E 2 7 1 4 1015.8 1013.3 0.0
11/05:30am 15.8 15.8 14.2 90 0.9 E 7 9 4 5 1015.5 1013.0 0.0
11/05:00am 16.9 16.3 14.7 87 1.3 SE 11 13 6 7 1015.3 1012.8 0.0
11/04:30am 16.3 16.5 14.8 91 0.9 ESE 7 9 4 5 1015.1 1012.6 0.0
11/04:00am 16.0 15.8 14.7 92 0.8 ESE 9 11 5 6 1015.0 1012.5 0.0
11/03:30am 16.1 16.1 14.3 89 1.1 E 7 9 4 5 1014.9 1012.4 0.0
11/03:00am 17.3 17.7 15.3 88 1.2 E 7 9 4 5 1014.9 1012.4 0.0
11/02:30am 17.1 16.6 14.9 87 1.3 ESE 11 13 6 7 1015.0 1012.5 0.0
11/02:00am 17.3 17.3 15.1 87 1.3 ESE 9 11 5 6 1015.3 1012.8 0.0
11/01:30am 17.5 17.9 15.3 87 1.3 SE 7 9 4 5 1015.5 1013.0 0.0
11/01:00am 16.9 17.1 14.7 87 1.3 ESE 7 9 4 5 1015.5 1013.0 0.0
11/12:30am 18.5 18.8 15.0 80 2.1 E 7 9 4 5 1015.8 1013.3 0.0
11/12:00am 19.4 19.7 15.1 76 2.6 SE 7 9 4 5 1015.9 1013.5 0.0
 
Date/Time
EDT
Temp
°C
App
Temp
°C
Dew
Point
Rel
Hum
%
Delta-T
°C
Wind Press
QNH
hPa
Press
MSL
hPa
Rain
since 9 am
mm
Dir
 
Spd
km/h
Gust
km/h
Spd
kts
Gust
kts
10/11:30pm 19.7 19.6 14.9 74 2.9 SSE 9 15 5 8 1015.7 1013.2 0.0
10/11:00pm 20.7 20.5 14.6 68 3.7 SE 9 13 5 7 1015.5 1013.0 0.0
10/10:30pm 21.3 20.7 14.7 66 4.0 S 11 15 6 8 1015.5 1013.0 0.0
10/10:00pm 22.0 22.2 14.6 63 4.5 SSW 7 13 4 7 1015.3 1012.8 0.0
10/09:30pm 22.9 21.7 15.0 61 4.8 ESE 15 20 8 11 1014.8 1012.3 0.0
10/09:00pm 24.0 22.1 14.1 54 6.0 E 17 32 9 17 1014.4 1011.9 0.0
10/08:30pm 24.5 21.8 13.4 50 6.6 E 20 26 11 14 1014.1 1011.6 0.0
10/08:00pm 25.9 23.9 11.6 40 8.4 N 13 15 7 8 1013.7 1011.2 0.0
10/07:30pm 27.4 24.6 11.4 37 9.4 NW 17 22 9 12 1013.1 1010.6 0.0
10/07:00pm 28.9 25.6 11.0 33 10.5 WNW 19 28 10 15 1012.9 1010.4 0.0
10/06:30pm 29.5 26.1 11.1 32 10.8 WNW 20 28 11 15 1012.2 1009.7 0.0
10/06:00pm 30.2 27.2 12.1 32 10.9 WNW 19 26 10 14 1012.0 1009.5 0.0
10/05:30pm 30.5 26.6 9.4 27 12.1 WNW 20 26 11 14 1012.2 1009.7 0.0
10/05:00pm 31.0 26.9 8.7 25 12.7 WNW 20 28 11 15 1012.2 1009.7 0.0
10/04:30pm 31.1 27.0 8.8 25 12.7 WNW 20 30 11 16 1012.5 1009.9 0.0
10/04:00pm 31.2 27.9 9.4 26 12.6 NW 17 28 9 15 1012.8 1010.3 0.0
10/03:30pm 30.6 28.2 11.5 30 11.4 WNW 15 24 8 13 1013.1 1010.6 0.0
10/03:00pm 29.4 26.5 14.0 39 9.5 N 22 32 12 17 1013.5 1011.0 0.0
10/02:30pm 28.7 26.6 15.2 43 8.4 NW 20 30 11 16 1014.1 1011.6 0.0
10/02:00pm 28.0 26.4 15.0 45 8.1 N 17 32 9 17 1014.6 1012.1 0.0
10/01:30pm 28.1 27.1 16.7 50 7.3 NW 17 30 9 16 1015.0 1012.5 0.0
10/01:00pm 27.0 25.4 15.1 48 7.4 NW 17 28 9 15 1015.3 1012.8 0.0
10/12:30pm 26.8 25.2 14.9 48 7.4 NW 17 28 9 15 1015.8 1013.3 0.0
10/12:00pm 26.3 24.7 15.0 49 7.0 NW 17 26 9 14 1016.4 1013.9 0.0
10/11:30am 25.6 23.5 15.3 53 6.4 NW 20 28 11 15 1016.7 1014.2 0.0
10/11:00am 24.8 23.2 15.1 54 6.0 NW 17 28 9 15 1017.1 1014.6 0.0
10/10:30am 22.5 23.1 15.4 64 4.4 WNW 6 9 3 5 1017.4 1015.0 0.0
10/10:00am 20.9 21.2 14.5 67 3.8 WNW 6 9 3 5 1017.7 1015.3 0.0
10/09:30am 19.7 20.5 14.9 74 2.9 NNW 4 9 2 5 1018.1 1015.6 0.0
10/09:00am 18.2 19.2 14.3 78 2.3 NNE 2 7 1 4 1018.3 1015.8 0.0
10/08:30am 17.2 17.3 13.9 81 1.9 SE 6 9 3 5 1018.1 1015.6 0.0
10/08:00am 16.1 15.8 13.4 84 1.6 SSE 7 9 4 5 1018.0 1015.5 0.0
10/07:30am 14.8 14.6 13.7 93 0.6 SE 7 9 4 5 1017.8 1015.4 0.0
10/07:00am 13.0 13.8 12.7 98 0.2 CALM 0 6 0 3 1017.7 1015.3 0.0
10/06:30am 12.3 11.2 12.1 99 0.1 E 9 9 5 5 1017.7 1015.3 0.0
10/06:00am 12.9 13.7 12.6 98 0.2 CALM 0 0 0 0 1017.5 1015.1 0.0
10/05:30am 12.8 13.4 12.0 95 0.4 CALM 0 0 0 0 1017.4 1015.0 0.0
10/05:00am 13.1 14.0 12.8 98 0.2 CALM 0 0 0 0 1017.3 1014.8 0.0
10/04:30am 13.3 12.9 12.4 94 0.5 N 6 7 3 4 1017.4 1015.0 0.0
10/04:00am 13.7 14.5 12.4 92 0.7 CALM 0 0 0 0 1017.3 1014.8 0.0
10/03:30am 14.0 14.8 12.6 91 0.8 CALM 0 0 0 0 1017.5 1015.1 0.0
10/03:00am 15.0 14.7 13.4 90 0.9 NE 7 9 4 5 1017.8 1015.4 0.0
10/02:30am 14.1 13.2 12.7 91 0.8 E 9 9 5 5 1018.1 1015.6 0.0
10/02:00am 14.7 13.9 12.9 89 1.0 E 9 9 5 5 1018.4 1015.9 0.0
10/01:30am 15.1 14.4 13.3 89 1.0 SE 9 11 5 6 1018.7 1016.2 0.0
10/01:00am 15.8 14.9 13.6 87 1.3 ESE 11 13 6 7 1019.1 1016.7 0.0
10/12:30am 15.5 14.8 13.3 87 1.3 SE 9 11 5 6 1019.5 1017.1 0.0
10/12:00am 16.0 15.8 13.7 86 1.3 SE 7 9 4 5 1019.7 1017.3 0.0
 
Date/Time
EDT
Temp
°C
App
Temp
°C
Dew
Point
Rel
Hum
%
Delta-T
°C
Wind Press
QNH
hPa
Press
MSL
hPa
Rain
since 9 am
mm
Dir
 
Spd
km/h
Gust
km/h
Spd
kts
Gust
kts
09/11:30pm 17.0 16.5 13.9 82 1.8 SSE 9 9 5 5 1020.0 1017.5 0.0
09/11:00pm 18.2 17.9 14.3 78 2.3 ENE 9 11 5 6 1020.1 1017.6 0.0
09/10:30pm 18.6 18.3 14.5 77 2.4 E 9 13 5 7 1020.2 1017.7 0.0
09/10:00pm 19.3 18.8 15.0 76 2.6 E 11 15 6 8 1020.1 1017.6 0.0
09/09:30pm 19.9 19.4 14.9 73 3.0 E 11 19 6 10 1019.6 1017.2 0.0
09/09:00pm 20.5 19.7 15.1 71 3.3 ENE 13 19 7 10 1019.3 1016.9 0.0
09/08:30pm 21.5 19.1 15.3 68 3.8 E 22 30 12 16 1018.7 1016.2 0.0
09/08:00pm 22.8 19.9 15.1 62 4.7 ENE 24 33 13 18 1018.6 1016.1 0.0
09/07:30pm 24.5 21.6 14.0 52 6.3 ENE 22 30 12 16 1018.2 1015.7 0.0
09/07:00pm 25.9 23.1 13.1 45 7.7 ENE 20 28 11 15 1017.8 1015.4 0.0
09/06:30pm 26.5 23.8 13.6 45 7.8 ENE 20 28 11 15 1017.6 1015.2 0.0
09/06:00pm 28.0 25.8 15.0 45 8.1 NE 20 28 11 15 1017.7 1015.3 0.0
09/05:30pm 28.7 27.3 14.5 42 8.8 N 15 30 8 16 1017.8 1015.4 0.0
09/05:00pm 28.0 27.0 13.5 41 8.8 NE 11 17 6 9 1018.1 1015.6 0.0

Other Formats:

Comma delimited format used in spreadsheet applications
http://www.bom.gov.au/fwo/IDN60801/IDN60801.94926.axf

JavaScript Object Notation format (JSON) in row-major order
http://www.bom.gov.au/fwo/IDN60801/IDN60801.94926.json